Time;durP1;ratioP1;P1;durP2;ratioP2;P2;SDS_P1;SDS_P2;PMS_P1;PMS_P2;Temp;Humidity;BMP_temperature;BMP_pressure;BME280_temperature;BME280_humidity;BME280_pressure;Samples;Min_cycle;Max_cycle;Signal;HPM_P1;HPM_P2
2023/12/14 00:00:14;;;;;;;;;;;;;;;-140.72;100.00;56329.31;5095372;28;19920;-72
2023/12/14 00:02:40;;;;;;;;;;;;;;;-140.72;100.00;56288.69;5081205;28;20010;-72
2023/12/14 00:05:05;;;;;;;;;;;;;;;-140.72;100.00;56272.44;5102613;28;20330;-72
2023/12/14 00:07:30;;;;;;;;;;;;;;;-140.72;100.00;56264.31;5103784;28;20437;-73
2023/12/14 00:09:56;;;;;;;;;;;;;;;-140.72;100.00;56248.06;5093587;28;19919;-72
2023/12/14 00:12:21;;;;;;;;;;;;;;;-140.72;100.00;56241.97;5081220;28;19916;-73
2023/12/14 00:14:46;;;;;;;;;;;;;;;-140.72;100.00;56219.63;5089797;28;20345;-72
2023/12/14 00:17:11;;;;;;;;;;;;;;;-140.72;100.00;56187.13;5094124;28;19988;-72
2023/12/14 00:19:37;;;;;;;;;;;;;;;-140.72;100.00;56122.13;5075563;28;20006;-73
2023/12/14 00:22:02;;;;;;;;;;;;;;;-140.72;100.00;56087.59;5071231;28;20035;-73
2023/12/14 00:24:27;;;;;;;;;;;;;;;-140.72;100.00;56061.19;5077041;28;19917;-72
2023/12/14 00:26:52;;;;;;;;;;;;;;;-140.72;100.00;56047.00;5074787;28;20338;-72
2023/12/14 00:29:18;;;;;;;;;;;;;;;-140.72;100.00;56034.81;5092626;28;20415;-73
2023/12/14 00:31:43;;;;;;;;;;;;;;;-140.72;100.00;56030.75;5087058;28;21542;-72
2023/12/14 00:34:08;;;;;;;;;;;;;;;-140.72;100.00;56044.97;5081318;28;19920;-72
2023/12/14 00:36:33;;;;;;;;;;;;;;;-140.72;100.00;56014.50;5092819;28;19977;-72
2023/12/14 00:38:58;;;;;;;;;;;;;;;-140.72;100.00;55967.78;5068126;28;19961;-73
2023/12/14 00:41:24;;;;;;;;;;;;;;;-140.72;100.00;55902.78;5102762;28;19931;-72
2023/12/14 00:43:49;;;;;;;;;;;;;;;-140.72;100.00;55933.25;5088954;28;19917;-72
2023/12/14 00:46:18;;;;;;;;;;;;;;;-140.72;100.00;55967.78;5087629;28;20299;-72
2023/12/14 00:48:43;;;;;;;;;;;;;;;-140.72;100.00;55919.03;5100385;28;19927;-72
2023/12/14 00:51:08;;;;;;;;;;;;;;;-140.72;100.00;55896.69;5078639;28;20293;-72
2023/12/14 00:53:33;;;;;;;;;;;;;;;-140.72;100.00;55856.06;5090358;28;20265;-71
2023/12/14 00:55:59;;;;;;;;;;;;;;;-140.72;100.00;55931.22;5088291;28;19927;-73
2023/12/14 00:58:24;;;;;;;;;;;;;;;-140.72;100.00;55874.34;5097189;28;19915;-71
2023/12/14 01:00:49;;;;;;;;;;;;;;;-140.72;100.00;55837.81;5090624;28;20327;-71
2023/12/14 01:03:14;;;;;;;;;;;;;;;-140.72;100.00;55860.13;5074781;28;20424;-71
2023/12/14 01:05:40;;;;;;;;;;;;;;;-140.72;100.00;55837.81;5090155;28;19928;-71
2023/12/14 01:08:05;;;;;;;;;;;;;;;-140.72;100.00;55817.50;5102448;28;19916;-71
2023/12/14 01:10:31;;;;;;;;;;;;;;;-140.72;100.00;55811.41;5086713;28;20293;-71
2023/12/14 01:12:56;;;;;;;;;;;;;;;-140.72;100.00;55835.78;5102097;28;19965;-71
2023/12/14 01:15:21;;;;;;;;;;;;;;;-140.72;100.00;55791.09;5096760;28;19921;-71
2023/12/14 01:17:46;;;;;;;;;;;;;;;-140.72;100.00;55815.47;5091155;28;20015;-71
2023/12/14 01:20:11;;;;;;;;;;;;;;;-140.72;100.00;55825.63;5101824;28;19979;-71
2023/12/14 01:22:37;;;;;;;;;;;;;;;-140.72;100.00;55780.94;5080794;28;19963;-71
2023/12/14 01:25:02;;;;;;;;;;;;;;;-140.72;100.00;55780.94;5081805;28;20011;-71
2023/12/14 01:27:27;;;;;;;;;;;;;;;-140.72;100.00;55791.09;5078717;28;19970;-72
2023/12/14 01:29:55;;;;;;;;;;;;;;;-140.72;100.00;55764.69;5097010;28;20031;-72
2023/12/14 01:32:34;;;;;;;;;;;;;;;-140.72;100.00;55744.38;5089548;28;19920;-72
2023/12/14 01:34:59;;;;;;;;;;;;;;;-140.72;100.00;55760.63;5079370;28;19916;-72
2023/12/14 01:37:24;;;;;;;;;;;;;;;-140.72;100.00;55715.94;5093178;28;20345;-72
2023/12/14 01:39:50;;;;;;;;;;;;;;;-140.72;100.00;55736.25;5095879;28;20424;-72
2023/12/14 01:42:15;;;;;;;;;;;;;;;-140.72;100.00;55661.13;5100281;28;19920;-72
2023/12/14 01:44:40;;;;;;;;;;;;;;;-140.72;100.00;55673.31;5079712;28;19916;-72
2023/12/14 01:47:05;;;;;;;;;;;;;;;-140.72;100.00;55665.19;5083316;28;19922;-72
2023/12/14 01:49:30;;;;;;;;;;;;;;;-140.72;100.00;55655.03;5091316;28;20266;-71
2023/12/14 01:51:56;;;;;;;;;;;;;;;-140.72;100.00;55663.16;5085682;28;20091;-72
2023/12/14 02:00:26;;;;;;;;;;;;;;;-140.72;100.00;55679.41;5091293;28;19962;-71
2023/12/14 02:03:04;;;;;;;;;;;;;;;-140.72;100.00;55640.81;5094114;28;19916;-72
2023/12/14 02:05:29;;;;;;;;;;;;;;;-140.72;100.00;55644.88;5075156;28;19944;-72
2023/12/14 02:07:55;;;;;;;;;;;;;;;-140.72;100.00;55665.19;5058255;28;20374;-72
2023/12/14 02:10:20;;;;;;;;;;;;;;;-140.72;100.00;55681.44;5073862;28;19917;-72
2023/12/14 02:12:45;;;;;;;;;;;;;;;-140.72;100.00;55675.34;5093500;28;19916;-71
2023/12/14 02:15:11;;;;;;;;;;;;;;;-140.72;100.00;55691.56;5065973;28;19943;-71
2023/12/14 02:17:37;;;;;;;;;;;;;;;-140.72;100.00;55679.41;5087972;28;20003;-71
2023/12/14 02:20:02;;;;;;;;;;;;;;;-140.72;100.00;55689.56;5092642;28;19959;-72
2023/12/14 02:22:27;;;;;;;;;;;;;;;-140.72;100.00;55687.50;5092061;28;19924;-71
2023/12/14 02:24:52;;;;;;;;;;;;;;;-140.72;100.00;55713.91;5103640;28;19907;-71
2023/12/14 02:27:18;;;;;;;;;;;;;;;-140.72;100.00;55691.56;5081580;28;19924;-72
2023/12/14 02:29:43;;;;;;;;;;;;;;;-140.72;100.00;55713.91;5092352;28;19927;-76
2023/12/14 02:32:08;;;;;;;;;;;;;;;-140.72;100.00;55663.16;5092258;28;19931;-72
2023/12/14 02:34:33;;;;;;;;;;;;;;;-140.72;100.00;55691.56;5073983;28;19952;-72
2023/12/14 02:36:58;;;;;;;;;;;;;;;-140.72;100.00;55707.81;5076207;28;19959;-72
2023/12/14 02:39:24;;;;;;;;;;;;;;;-140.72;100.00;55724.06;5073063;28;19931;-71
2023/12/14 02:41:49;;;;;;;;;;;;;;;-140.72;100.00;55711.88;5076174;28;19923;-72
2023/12/14 02:44:14;;;;;;;;;;;;;;;-140.72;100.00;55726.09;5088823;28;19917;-71
2023/12/14 02:46:39;;;;;;;;;;;;;;;-140.72;100.00;55695.63;5099364;28;19969;-71
2023/12/14 02:49:04;;;;;;;;;;;;;;;-140.72;100.00;55732.19;5106658;28;20073;-71
2023/12/14 02:51:30;;;;;;;;;;;;;;;-140.72;100.00;55701.72;5078624;28;19995;-71
2023/12/14 02:54:02;;;;;;;;;;;;;;;-140.72;100.00;55726.09;5094036;28;20011;-71
2023/12/14 02:56:27;;;;;;;;;;;;;;;-140.72;100.00;55754.53;5109501;28;19920;-71
2023/12/14 03:01:55;;;;;;;;;;;;;;;-140.72;100.00;55744.38;5105819;28;19946;-72
2023/12/14 03:04:23;;;;;;;;;;;;;;;-140.72;100.00;55717.97;5091627;28;19920;-72
2023/12/14 03:06:48;;;;;;;;;;;;;;;-140.72;100.00;55711.88;5093079;28;19927;-71
2023/12/14 03:09:14;;;;;;;;;;;;;;;-140.72;100.00;55734.22;5096592;28;20293;-71
2023/12/14 03:12:04;;;;;;;;;;;;;;;-140.72;100.00;55689.56;5094458;28;20006;-72
2023/12/14 03:14:32;;;;;;;;;;;;;;;-140.72;100.00;55713.91;5094995;28;19928;-71
2023/12/14 03:16:57;;;;;;;;;;;;;;;-140.72;100.00;55711.88;5095431;28;19920;-71
2023/12/14 03:19:22;;;;;;;;;;;;;;;-140.72;100.00;55711.88;5087209;28;20318;-71
2023/12/14 03:21:48;;;;;;;;;;;;;;;-140.72;100.00;55715.94;5070965;28;19920;-71
2023/12/14 03:24:13;;;;;;;;;;;;;;;-140.72;100.00;55699.69;5080888;28;19931;-71
2023/12/14 03:26:38;;;;;;;;;;;;;;;-140.72;100.00;55659.09;5090632;28;19917;-71
2023/12/14 03:29:07;;;;;;;;;;;;;;;-140.72;100.00;55679.41;5082623;28;19921;-72
2023/12/14 03:31:33;;;;;;;;;;;;;;;-140.72;100.00;55677.38;5088798;28;20332;-71
2023/12/14 03:33:58;;;;;;;;;;;;;;;-140.72;100.00;55724.06;5075048;28;19960;-72
2023/12/14 03:36:26;;;;;;;;;;;;;;;-140.72;100.00;55675.34;5095267;28;19942;-71
2023/12/14 03:38:51;;;;;;;;;;;;;;;-140.72;100.00;55673.31;5085615;28;19922;-72
2023/12/14 03:41:16;;;;;;;;;;;;;;;-140.72;100.00;55655.03;5092870;28;19916;-71
2023/12/14 03:43:42;;;;;;;;;;;;;;;-140.72;100.00;55646.91;5084063;28;19916;-72
2023/12/14 03:46:07;;;;;;;;;;;;;;;-140.72;100.00;55630.66;5096801;28;19962;-73
2023/12/14 03:48:32;;;;;;;;;;;;;;;-140.72;100.00;55683.47;5094242;28;19990;-72
2023/12/14 03:51:01;;;;;;;;;;;;;;;-140.72;100.00;55636.75;5091463;28;19920;-72
2023/12/14 03:53:27;;;;;;;;;;;;;;;-140.72;100.00;55626.59;5069524;28;19916;-72
2023/12/14 03:55:52;;;;;;;;;;;;;;;-140.72;100.00;55612.38;5093926;28;19931;-72
2023/12/14 03:58:17;;;;;;;;;;;;;;;-140.72;100.00;55622.53;5073198;28;19916;-72
2023/12/14 04:00:42;;;;;;;;;;;;;;;-140.72;100.00;55614.41;5069920;28;19917;-72
2023/12/14 04:03:07;;;;;;;;;;;;;;;-140.72;100.00;55626.59;5085058;28;20288;-72
2023/12/14 04:05:33;;;;;;;;;;;;;;;-140.72;100.00;55573.78;5083206;28;20374;-72
2023/12/14 04:07:58;;;;;;;;;;;;;;;-140.72;100.00;55608.31;5084393;28;20007;-72
2023/12/14 04:10:23;;;;;;;;;;;;;;;-140.72;100.00;55577.84;5083237;28;19920;-72
2023/12/14 04:12:48;;;;;;;;;;;;;;;-140.72;100.00;55620.50;5066657;28;20018;-72
2023/12/14 04:15:14;;;;;;;;;;;;;;;-140.72;100.00;55602.22;5080106;28;20070;-72
2023/12/14 04:17:39;;;;;;;;;;;;;;;-140.72;100.00;55581.91;5087930;28;19920;-72
2023/12/14 04:20:05;;;;;;;;;;;;;;;-140.72;100.00;55565.66;5094352;28;19916;-72
2023/12/14 04:22:31;;;;;;;;;;;;;;;-140.72;100.00;55588.00;5068649;28;20297;-72
2023/12/14 04:24:56;;;;;;;;;;;;;;;-140.72;100.00;55567.69;5090467;28;19931;-72
2023/12/14 04:27:26;;;;;;;;;;;;;;;-140.72;100.00;55545.38;5087408;28;19927;-71
2023/12/14 04:29:52;;;;;;;;;;;;;;;-140.72;100.00;55504.75;5093183;28;19916;-71
2023/12/14 04:32:17;;;;;;;;;;;;;;;-140.72;100.00;55510.84;5080346;28;19924;-71
2023/12/14 04:34:42;;;;;;;;;;;;;;;-140.72;100.00;55531.16;5088646;28;19970;-71
2023/12/14 04:37:07;;;;;;;;;;;;;;;-140.72;100.00;55508.81;5068713;28;19916;-72
2023/12/14 04:39:32;;;;;;;;;;;;;;;-140.72;100.00;55498.66;5064600;28;19964;-72
2023/12/14 04:41:58;;;;;;;;;;;;;;;-140.72;100.00;55510.84;5085504;28;19916;-72
2023/12/14 04:44:23;;;;;;;;;;;;;;;-140.72;100.00;55429.63;5085777;28;19927;-73
2023/12/14 04:46:48;;;;;;;;;;;;;;;-140.72;100.00;55470.22;5088185;28;19950;-72
2023/12/14 04:49:14;;;;;;;;;;;;;;;-140.72;100.00;55378.84;5103244;28;20365;-72
2023/12/14 04:51:39;;;;;;;;;;;;;;;-140.72;100.00;55419.47;5093121;28;19917;-72
2023/12/14 04:54:04;;;;;;;;;;;;;;;-140.72;100.00;55417.44;5099997;28;19916;-72
2023/12/14 04:56:29;;;;;;;;;;;;;;;-140.72;100.00;55403.22;5079548;28;19920;-72
2023/12/14 04:58:55;;;;;;;;;;;;;;;-140.72;100.00;55389.00;5090711;28;19922;-72
2023/12/14 05:01:20;;;;;;;;;;;;;;;-140.72;100.00;55360.56;5093806;28;19950;-73
2023/12/14 05:03:45;;;;;;;;;;;;;;;-140.72;100.00;55374.78;5075189;28;19916;-72
2023/12/14 05:06:10;;;;;;;;;;;;;;;-140.72;100.00;55403.22;5087214;28;19931;-72
2023/12/14 05:08:36;;;;;;;;;;;;;;;-140.72;100.00;55360.56;5092640;28;20696;-72
2023/12/14 05:11:01;;;;;;;;;;;;;;;-140.72;100.00;55364.63;5082804;28;20394;-72
2023/12/14 05:13:26;;;;;;;;;;;;;;;-140.72;100.00;55378.84;5082240;28;20401;-72
2023/12/14 05:15:54;;;;;;;;;;;;;;;-140.72;100.00;55366.66;5096088;28;20018;-72
2023/12/14 05:18:19;;;;;;;;;;;;;;;-140.72;100.00;55374.78;5082194;28;19920;-74
2023/12/14 05:20:45;;;;;;;;;;;;;;;-140.72;100.00;55336.19;5087959;28;19965;-75
2023/12/14 05:23:11;;;;;;;;;;;;;;;-140.72;100.00;55393.06;5090187;28;19995;-72
2023/12/14 05:25:36;;;;;;;;;;;;;;;-140.72;100.00;55397.13;5087626;28;19993;-72
2023/12/14 05:28:01;;;;;;;;;;;;;;;-140.72;100.00;55380.88;5092961;28;19919;-72
2023/12/14 05:30:44;;;;;;;;;;;;;;;-140.72;100.00;55374.78;5092999;28;19916;-72
2023/12/14 05:33:09;;;;;;;;;;;;;;;-140.72;100.00;55399.16;5091839;28;19926;-72
2023/12/14 05:35:53;;;;;;;;;;;;;;;-140.72;100.00;55358.53;5083294;28;19921;-71
2023/12/14 05:38:19;;;;;;;;;;;;;;;-140.72;100.00;55315.91;5088777;28;19916;-71
2023/12/14 05:40:44;;;;;;;;;;;;;;;-140.72;100.00;55319.97;5080780;28;19931;-72
2023/12/14 05:43:10;;;;;;;;;;;;;;;-140.72;100.00;55252.94;5101151;28;19924;-72
2023/12/14 05:45:35;;;;;;;;;;;;;;;-140.72;100.00;55283.41;5096608;28;19920;-72
2023/12/14 05:48:01;;;;;;;;;;;;;;;-140.72;100.00;55265.13;5082622;28;19920;-71
2023/12/14 05:50:27;;;;;;;;;;;;;;;-140.72;100.00;55204.22;5088111;28;20385;-74
2023/12/14 05:53:01;;;;;;;;;;;;;;;-140.72;100.00;55261.06;5092687;28;19951;-72
2023/12/14 05:55:26;;;;;;;;;;;;;;;-140.72;100.00;55218.44;5081681;28;19919;-71
2023/12/14 05:57:52;;;;;;;;;;;;;;;-140.72;100.00;55212.34;5071332;28;20281;-71
2023/12/14 06:00:17;;;;;;;;;;;;;;;-140.72;100.00;55159.53;5088344;28;20328;-72
2023/12/14 06:05:45;;;;;;;;;;;;;;;-140.72;100.00;55090.50;5079156;28;19938;-72
2023/12/14 06:08:10;;;;;;;;;;;;;;;-140.72;100.00;55098.63;5069489;28;19997;-72
2023/12/14 06:10:36;;;;;;;;;;;;;;;-140.72;100.00;55049.91;5079377;28;20253;-75
2023/12/14 06:13:01;;;;;;;;;;;;;;;-140.72;100.00;55074.25;5077915;28;19916;-75
2023/12/14 06:15:28;;;;;;;;;;;;;;;-140.72;100.00;55066.13;5112252;28;19922;-75
2023/12/14 06:17:53;;;;;;;;;;;;;;;-140.72;100.00;55017.41;5073905;28;19917;-72
2023/12/14 06:20:18;;;;;;;;;;;;;;;-140.72;100.00;55013.34;5099410;28;19918;-75
2023/12/14 06:23:05;;;;;;;;;;;;;;;-140.72;100.00;55001.16;5100247;28;20055;-75
2023/12/14 06:25:31;;;;;;;;;;;;;;;-140.72;100.00;55031.63;5092917;28;19916;-72
2023/12/14 06:27:56;;;;;;;;;;;;;;;-140.72;100.00;55049.91;5087010;28;19989;-71
2023/12/14 06:30:21;;;;;;;;;;;;;;;-140.72;100.00;55025.53;5119345;28;20015;-72
2023/12/14 06:32:47;;;;;;;;;;;;;;;-140.72;100.00;55017.41;5096218;28;19963;-72
2023/12/14 06:35:25;;;;;;;;;;;;;;;-140.72;100.00;55045.84;5089057;28;19916;-72
2023/12/14 06:37:50;;;;;;;;;;;;;;;-140.72;100.00;54997.09;5093031;28;19920;-72
2023/12/14 06:40:15;;;;;;;;;;;;;;;-140.72;100.00;55025.53;5090811;28;19916;-72
2023/12/14 06:42:42;;;;;;;;;;;;;;;-140.72;100.00;55078.31;5096646;28;19924;-72
2023/12/14 06:45:08;;;;;;;;;;;;;;;-140.72;100.00;55029.59;5087781;28;19916;-71
2023/12/14 06:47:33;;;;;;;;;;;;;;;-140.72;100.00;55051.94;5073370;28;19980;-72
2023/12/14 06:49:58;;;;;;;;;;;;;;;-140.72;100.00;55053.97;5117433;28;20335;-71
2023/12/14 06:52:23;;;;;;;;;;;;;;;-140.72;100.00;55033.66;5094916;28;19920;-71
2023/12/14 06:54:48;;;;;;;;;;;;;;;-140.72;100.00;55037.72;5097403;28;19971;-71
2023/12/14 06:57:14;;;;;;;;;;;;;;;-140.72;100.00;55062.06;5106038;28;19932;-71
2023/12/14 06:59:39;;;;;;;;;;;;;;;-140.72;100.00;55037.72;5107485;28;19920;-73
2023/12/14 07:02:04;;;;;;;;;;;;;;;-140.72;100.00;55062.06;5086429;28;19922;-72
2023/12/14 07:04:31;;;;;;;;;;;;;;;-140.72;100.00;55035.69;5078404;28;20406;-72
2023/12/14 07:07:17;;;;;;;;;;;;;;;-140.72;100.00;55060.06;5096462;28;20284;-72
2023/12/14 07:09:43;;;;;;;;;;;;;;;-140.72;100.00;55033.66;5099173;28;19956;-71
2023/12/14 07:12:08;;;;;;;;;;;;;;;-140.72;100.00;55094.56;5085887;28;20388;-72
2023/12/14 07:14:51;;;;;;;;;;;;;;;-140.72;100.00;55066.13;5094618;28;19923;-75
2023/12/14 07:17:16;;;;;;;;;;;;;;;-140.72;100.00;55078.31;5095846;28;19917;-73
2023/12/14 07:19:41;;;;;;;;;;;;;;;-140.72;100.00;55088.47;5094632;28;20293;-75
2023/12/14 07:22:07;;;;;;;;;;;;;;;-140.72;100.00;55108.78;5095498;28;20341;-80
2023/12/14 07:24:32;;;;;;;;;;;;;;;-140.72;100.00;55084.41;5081941;28;20385;-74
2023/12/14 07:26:57;;;;;;;;;;;;;;;-140.72;100.00;55100.66;5093130;28;20342;-71
2023/12/14 07:29:22;;;;;;;;;;;;;;;-140.72;100.00;55131.13;5092716;28;20280;-72
2023/12/14 07:31:47;;;;;;;;;;;;;;;-140.72;100.00;55082.38;5095436;28;19978;-71
2023/12/14 07:34:13;;;;;;;;;;;;;;;-140.72;100.00;55139.25;5088796;28;20347;-71
2023/12/14 07:36:38;;;;;;;;;;;;;;;-140.72;100.00;55151.41;5088480;28;19928;-71
2023/12/14 07:39:03;;;;;;;;;;;;;;;-140.72;100.00;55212.34;5089915;28;19927;-70
2023/12/14 07:41:31;;;;;;;;;;;;;;;-140.72;100.00;55214.38;5095166;28;19920;-71
2023/12/14 07:43:58;;;;;;;;;;;;;;;-140.72;100.00;55212.34;5095377;28;19927;-70
2023/12/14 07:46:23;;;;;;;;;;;;;;;-140.72;100.00;55269.19;5091720;28;20013;-70
2023/12/14 07:48:48;;;;;;;;;;;;;;;-140.72;100.00;55315.91;5094465;28;19977;-70
2023/12/14 07:51:14;;;;;;;;;;;;;;;-140.72;100.00;55326.06;5092473;28;19920;-71
2023/12/14 07:53:40;;;;;;;;;;;;;;;-140.72;100.00;55368.69;5095658;28;20390;-71
2023/12/14 07:56:06;;;;;;;;;;;;;;;-140.72;100.00;55358.53;5094897;28;19989;-71
2023/12/14 07:58:31;;;;;;;;;;;;;;;-140.72;100.00;55364.63;5090536;28;19923;-70
2023/12/14 08:00:56;;;;;;;;;;;;;;;-140.72;100.00;55411.34;5094045;28;19917;-71
2023/12/14 08:03:22;;;;;;;;;;;;;;;-140.72;100.00;55468.19;5087061;28;19927;-71
2023/12/14 08:05:47;;;;;;;;;;;;;;;-140.72;100.00;55510.84;5090261;28;19916;-71
2023/12/14 08:08:12;;;;;;;;;;;;;;;-140.72;100.00;55590.03;5090588;28;20350;-71
2023/12/14 08:10:37;;;;;;;;;;;;;;;-140.72;100.00;55543.34;5094093;28;19920;-71
2023/12/14 08:13:02;;;;;;;;;;;;;;;-140.72;100.00;55588.00;5091035;28;19932;-72
2023/12/14 08:15:28;;;;;;;;;;;;;;;-140.72;100.00;55622.53;5103619;28;19927;-72
2023/12/14 08:17:54;;;;;;;;;;;;;;;-140.72;100.00;55657.06;5086670;28;19999;-72
2023/12/14 08:20:19;;;;;;;;;;;;;;;-140.72;100.00;55691.56;5095204;28;20009;-72
2023/12/14 08:22:45;;;;;;;;;;;;;;;-140.72;100.00;55713.91;5079271;28;19921;-72
2023/12/14 08:25:14;;;;;;;;;;;;;;;-140.72;100.00;55750.47;5093750;28;20022;-72
2023/12/14 08:27:39;;;;;;;;;;;;;;;-140.72;100.00;55762.66;5103567;28;19965;-72
2023/12/14 08:30:05;;;;;;;;;;;;;;;-140.72;100.00;55736.25;5092157;28;19920;-71
2023/12/14 08:32:30;;;;;;;;;;;;;;;-140.72;100.00;55799.22;5092975;28;20010;-72
2023/12/14 08:34:55;;;;;;;;;;;;;;;-140.72;100.00;55821.56;5088895;28;19920;-72
2023/12/14 08:37:21;;;;;;;;;;;;;;;-140.72;100.00;55756.56;5089534;28;19917;-72
2023/12/14 08:39:46;;;;;;;;;;;;;;;-140.72;100.00;55742.34;5081952;28;19997;-72
2023/12/14 08:42:11;;;;;;;;;;;;;;;-140.72;100.00;55734.22;5093314;28;19923;-70
2023/12/14 08:47:39;;;;;;;;;;;;;;;-140.72;100.00;55679.41;5098439;28;19919;-70
2023/12/14 08:50:07;;;;;;;;;;;;;;;-140.72;100.00;55669.25;5068671;28;19920;-72
2023/12/14 08:52:32;;;;;;;;;;;;;;;-140.72;100.00;55646.91;5074730;28;19924;-70
2023/12/14 08:54:58;;;;;;;;;;;;;;;-140.72;100.00;55602.22;5073450;28;19996;-71
2023/12/14 08:57:23;;;;;;;;;;;;;;;-140.72;100.00;55608.31;5072352;28;19924;-71
2023/12/14 08:59:49;;;;;;;;;;;;;;;-140.72;100.00;55602.22;5062652;28;19943;-72
2023/12/14 09:02:14;;;;;;;;;;;;;;;-140.72;100.00;55622.53;5094002;28;19916;-70
2023/12/14 09:04:39;;;;;;;;;;;;;;;-140.72;100.00;55553.50;5093849;28;19948;-70
2023/12/14 09:07:04;;;;;;;;;;;;;;;-140.72;100.00;55521.00;5093689;28;20008;-71
2023/12/14 09:09:30;;;;;;;;;;;;;;;-140.72;100.00;55498.66;5093356;28;19928;-73
2023/12/14 09:11:55;;;;;;;;;;;;;;;-140.72;100.00;55464.13;5100733;28;19916;-74
2023/12/14 09:14:41;;;;;;;;;;;;;;;-140.72;100.00;55409.31;5096385;28;19919;-74
2023/12/14 09:17:06;;;;;;;;;;;;;;;-140.72;100.00;55405.25;5087391;28;19920;-73
2023/12/14 09:22:34;;;;;;;;;;;;;;;-140.72;100.00;55315.91;5091325;28;20000;-75
2023/12/14 09:24:59;;;;;;;;;;;;;;;-140.72;100.00;55252.94;5078214;28;20007;-74
2023/12/14 09:27:26;;;;;;;;;;;;;;;-140.72;100.00;55252.94;5089210;28;19919;-74
2023/12/14 09:29:51;;;;;;;;;;;;;;;-140.72;100.00;55173.75;5095237;28;19916;-75
2023/12/14 09:32:18;;;;;;;;;;;;;;;-140.72;100.00;55151.41;5076395;28;19972;-77
2023/12/14 09:34:43;;;;;;;;;;;;;;;-140.72;100.00;55151.41;5085060;28;20413;-77
2023/12/14 09:37:09;;;;;;;;;;;;;;;-140.72;100.00;55104.72;5076295;28;19983;-77
2023/12/14 09:39:38;;;;;;;;;;;;;;;-140.72;100.00;55068.16;5086043;28;19943;-76
2023/12/14 09:42:20;;;;;;;;;;;;;;;-140.72;100.00;55062.06;5076179;28;19971;-75
2023/12/14 09:44:59;;;;;;;;;;;;;;;-140.72;100.00;55082.38;5086305;28;19931;-76
2023/12/14 09:47:25;;;;;;;;;;;;;;;-140.72;100.00;55029.59;5075838;28;19923;-76
2023/12/14 09:49:52;;;;;;;;;;;;;;;-140.72;100.00;55007.25;5074659;28;20014;-76
2023/12/14 09:52:17;;;;;;;;;;;;;;;-140.72;100.00;54956.50;5095118;28;19923;-76
2023/12/14 09:54:43;;;;;;;;;;;;;;;-140.72;100.00;54942.28;5087300;28;20313;-73
2023/12/14 09:57:08;;;;;;;;;;;;;;;-140.72;100.00;54907.75;5055484;28;19969;-72
2023/12/14 09:59:33;;;;;;;;;;;;;;;-140.72;100.00;54901.66;5081322;28;19920;-72
2023/12/14 10:02:11;;;;;;;;;;;;;;;-140.72;100.00;54903.69;5094020;28;19916;-72
2023/12/14 10:04:37;;;;;;;;;;;;;;;-140.72;100.00;54909.78;5083666;28;19978;-73
2023/12/14 10:07:06;;;;;;;;;;;;;;;-140.72;100.00;54891.53;5088912;28;20374;-72
2023/12/14 10:09:32;;;;;;;;;;;;;;;-140.72;100.00;54966.66;5092458;28;20019;-72
2023/12/14 10:12:08;;;;;;;;;;;;;;;-140.72;100.00;54984.91;5087728;28;20350;-73
2023/12/14 10:14:33;;;;;;;;;;;;;;;-140.72;100.00;54972.75;5081714;28;19924;-72
2023/12/14 10:16:59;;;;;;;;;;;;;;;-140.72;100.00;54960.56;5088926;28;20312;-73
2023/12/14 10:19:24;;;;;;;;;;;;;;;-140.72;100.00;54895.59;5089633;28;19955;-73
2023/12/14 10:21:50;;;;;;;;;;;;;;;-140.72;100.00;54857.00;5081694;28;20362;-73
2023/12/14 10:24:16;;;;;;;;;;;;;;;-140.72;100.00;54816.41;5090048;28;19916;-72
2023/12/14 10:26:41;;;;;;;;;;;;;;;-140.72;100.00;54753.47;5087479;28;19946;-73
2023/12/14 10:29:07;;;;;;;;;;;;;;;-140.72;100.00;54769.69;5084301;28;20015;-73
2023/12/14 10:31:37;;;;;;;;;;;;;;;-140.72;100.00;54678.34;5092862;28;19916;-73
2023/12/14 10:34:02;;;;;;;;;;;;;;;-140.72;100.00;54611.34;5082010;28;19917;-73
2023/12/14 10:36:27;;;;;;;;;;;;;;;-140.72;100.00;54509.81;5063768;28;19943;-73
2023/12/14 10:38:53;;;;;;;;;;;;;;;-140.72;100.00;54444.84;5083241;28;20010;-72
2023/12/14 10:41:22;;;;;;;;;;;;;;;-140.72;100.00;54367.72;5081845;28;19924;-73
2023/12/14 10:43:48;;;;;;;;;;;;;;;-140.72;100.00;54286.50;5082015;28;20401;-73
2023/12/14 10:46:13;;;;;;;;;;;;;;;-140.72;100.00;54262.16;5077273;28;19916;-73
2023/12/14 10:48:43;;;;;;;;;;;;;;;-140.72;100.00;54229.66;5090662;28;19927;-73
2023/12/14 10:51:09;;;;;;;;;;;;;;;-140.72;100.00;54227.63;5085915;28;19916;-72
2023/12/14 10:53:35;;;;;;;;;;;;;;;-140.72;100.00;54256.06;5083181;28;20015;-73
2023/12/14 10:56:06;;;;;;;;;;;;;;;-140.72;100.00;54207.34;5081016;28;19920;-73
2023/12/14 10:58:47;;;;;;;;;;;;;;;-140.72;100.00;54195.16;5094103;28;19985;-73
2023/12/14 11:01:16;;;;;;;;;;;;;;;-140.72;100.00;54189.06;5083474;28;19943;-73
2023/12/14 11:03:43;;;;;;;;;;;;;;;-140.72;100.00;54160.66;5095228;28;19923;-73
2023/12/14 11:06:22;;;;;;;;;;;;;;;-140.72;100.00;54144.41;5094702;28;19920;-73
2023/12/14 11:08:47;;;;;;;;;;;;;;;-140.72;100.00;54152.53;5098618;28;19927;-72
2023/12/14 11:11:16;;;;;;;;;;;;;;;-140.72;100.00;54158.63;5095248;28;19916;-72
2023/12/14 11:13:42;;;;;;;;;;;;;;;-140.72;100.00;54168.75;5084129;28;19923;-73
2023/12/14 11:16:07;;;;;;;;;;;;;;;-140.72;100.00;54124.09;5079185;28;19920;-73
2023/12/14 11:18:33;;;;;;;;;;;;;;;-140.72;100.00;54097.72;5081838;28;20328;-73
2023/12/14 11:20:59;;;;;;;;;;;;;;;-140.72;100.00;54103.81;5076932;28;19916;-73
2023/12/14 11:23:29;;;;;;;;;;;;;;;-140.72;100.00;54103.81;5061843;28;19961;-73
2023/12/14 11:25:56;;;;;;;;;;;;;;;-140.72;100.00;54132.22;5086017;28;19963;-73
2023/12/14 11:28:22;;;;;;;;;;;;;;;-140.72;100.00;54032.75;5090599;28;19966;-73
2023/12/14 11:30:47;;;;;;;;;;;;;;;-140.72;100.00;54034.78;5087155;28;19915;-73
2023/12/14 11:33:13;;;;;;;;;;;;;;;-140.72;100.00;54014.50;5082100;28;19922;-73
2023/12/14 11:35:39;;;;;;;;;;;;;;;-140.72;100.00;53982.00;5105786;28;20003;-73
2023/12/14 11:38:10;;;;;;;;;;;;;;;-140.72;100.00;54022.59;5080719;28;19963;-73
2023/12/14 11:40:44;;;;;;;;;;;;;;;-140.72;100.00;54049.00;5093157;28;19916;-73
2023/12/14 11:43:10;;;;;;;;;;;;;;;-140.72;100.00;54022.59;5097349;28;19942;-72
2023/12/14 11:45:36;;;;;;;;;;;;;;;-140.72;100.00;54046.97;5098905;28;20075;-73
2023/12/14 11:48:04;;;;;;;;;;;;;;;-140.72;100.00;54051.03;5096678;28;19920;-73
2023/12/14 11:50:30;;;;;;;;;;;;;;;-140.72;100.00;54099.75;5094629;28;20344;-73
2023/12/14 11:52:55;;;;;;;;;;;;;;;-140.72;100.00;54176.88;5095751;28;20040;-72
2023/12/14 11:55:21;;;;;;;;;;;;;;;-140.72;100.00;54138.31;5089286;28;20034;-72
2023/12/14 11:57:47;;;;;;;;;;;;;;;-140.72;100.00;54160.66;5093984;28;20306;-72
2023/12/14 12:00:12;;;;;;;;;;;;;;;-140.72;100.00;54225.59;5093562;28;19927;-73
2023/12/14 12:02:40;;;;;;;;;;;;;;;-140.72;100.00;54323.06;5093778;28;19916;-72
2023/12/14 12:05:05;;;;;;;;;;;;;;;-140.72;100.00;54331.16;5093566;28;19924;-73
2023/12/14 12:07:31;;;;;;;;;;;;;;;-140.72;100.00;54347.41;5092548;28;19931;-72
2023/12/14 12:09:56;;;;;;;;;;;;;;;-140.72;100.00;54355.53;5091220;28;19924;-72
2023/12/14 12:12:21;;;;;;;;;;;;;;;-140.72;100.00;54361.63;5087525;28;20007;-73
2023/12/14 12:14:49;;;;;;;;;;;;;;;-140.72;100.00;54343.34;5087452;28;19958;-73
2023/12/14 12:17:15;;;;;;;;;;;;;;;-140.72;100.00;54339.28;5094266;28;19924;-72
2023/12/14 12:19:42;;;;;;;;;;;;;;;-140.72;100.00;54361.63;5094069;28;19923;-73
2023/12/14 12:22:07;;;;;;;;;;;;;;;-140.72;100.00;54367.72;5083130;28;20314;-73
2023/12/14 12:24:33;;;;;;;;;;;;;;;-140.72;100.00;54363.66;5094902;28;19955;-73
2023/12/14 12:26:58;;;;;;;;;;;;;;;-140.72;100.00;54369.75;5100107;28;20014;-73
2023/12/14 12:29:23;;;;;;;;;;;;;;;-140.72;100.00;54396.13;5094329;28;19924;-72
2023/12/14 12:31:49;;;;;;;;;;;;;;;-140.72;100.00;54375.84;5078089;28;19920;-73